Frankfort, Michigan
Current Conditions -  °F | °C
As of 7:12 AM on Monday 26 Jan 2015 (Local Time) from KFKS Reporting Station
Light Snow Light Snow  
Wind Chill:   Ceiling: Unl
Heat Index:   Visibility: 10mi
Dew Point: -1°   Wind: 3mph
Humidity: 88%   Direction: 320°NW
Pressure: 29.99"   Gusts: NA
Location:  44.63°N, 86.23°W
Report Text: KFKS 261212Z AUTO 32003KT 10SM -SN CLR M17/M18 A2999 RMK AO2 T11691184
Loading
Personal Weather Stations






























Interactive Weather Map New forecast layout! Learn more

10-Day Weather Forecast

Advertisements
Track Severe Weather on mobile